Pelham, Massachusetts
Current Conditions -  °F | °C
As of 6:58 AM on Monday 24 Nov 2014 (Local Time) from KCEF Reporting Station
Moderate Rain Moderate Rain  
Wind Chill: 58°   Ceiling: 1000
Heat Index: 58°   Visibility: 2mi
Dew Point: 57°   Wind: 17mph
Humidity: 95%   Direction: 160°SSE
Pressure: 29.71"   Gusts: NA
Location:  42.3773°N, 72.4671°W
Report Text: KCEF 241158Z 16015KT 2SM RA BR SCT003 BKN010 OVC015 15/14 A2971 RMK AO2A SLP067 P0015 60037 70037 T01460138 10146 20028 57060
Loading
Personal Weather Stations






























Interactive Weather Map New forecast layout! Learn more

10-Day Weather Forecast

Advertisements
Track Severe Weather on mobile